sensor_id;sensor_type;location;lat;lon;timestamp;P1;durP1;ratioP1;P2;durP2;ratioP2
8281;SDS011;25606;42.686;23.136;2022-07-23T00:00:10;6.10;;;4.80;;
8281;SDS011;25606;42.686;23.136;2022-07-23T00:02:38;4.90;;;4.40;;
8281;SDS011;25606;42.686;23.136;2022-07-23T00:05:07;6.03;;;4.37;;
8281;SDS011;25606;42.686;23.136;2022-07-23T00:07:34;5.40;;;4.37;;
8281;SDS011;25606;42.686;23.136;2022-07-23T00:10:02;7.53;;;4.83;;
8281;SDS011;25606;42.686;23.136;2022-07-23T00:12:29;6.93;;;4.43;;
8281;SDS011;25606;42.686;23.136;2022-07-23T00:14:56;7.53;;;4.30;;
8281;SDS011;25606;42.686;23.136;2022-07-23T00:17:23;6.17;;;4.43;;
8281;SDS011;25606;42.686;23.136;2022-07-23T00:19:51;5.43;;;4.50;;
8281;SDS011;25606;42.686;23.136;2022-07-23T00:22:20;5.67;;;4.77;;
8281;SDS011;25606;42.686;23.136;2022-07-23T00:24:47;5.63;;;4.30;;
8281;SDS011;25606;42.686;23.136;2022-07-23T00:27:15;6.23;;;4.70;;
8281;SDS011;25606;42.686;23.136;2022-07-23T00:29:42;5.27;;;4.63;;
8281;SDS011;25606;42.686;23.136;2022-07-23T00:32:09;7.87;;;4.57;;
8281;SDS011;25606;42.686;23.136;2022-07-23T00:34:36;5.20;;;4.10;;
8281;SDS011;25606;42.686;23.136;2022-07-23T00:37:04;5.77;;;4.43;;
8281;SDS011;25606;42.686;23.136;2022-07-23T00:39:33;5.50;;;4.77;;
8281;SDS011;25606;42.686;23.136;2022-07-23T00:42:00;5.77;;;4.63;;
8281;SDS011;25606;42.686;23.136;2022-07-23T00:44:28;9.47;;;4.93;;
8281;SDS011;25606;42.686;23.136;2022-07-23T00:46:56;5.80;;;4.40;;
8281;SDS011;25606;42.686;23.136;2022-07-23T00:49:25;6.40;;;4.47;;
8281;SDS011;25606;42.686;23.136;2022-07-23T00:51:52;4.90;;;4.40;;
8281;SDS011;25606;42.686;23.136;2022-07-23T00:54:21;5.67;;;4.77;;
8281;SDS011;25606;42.686;23.136;2022-07-23T00:56:50;4.80;;;4.03;;
8281;SDS011;25606;42.686;23.136;2022-07-23T00:59:17;5.63;;;3.93;;
8281;SDS011;25606;42.686;23.136;2022-07-23T01:01:45;6.13;;;4.70;;
8281;SDS011;25606;42.686;23.136;2022-07-23T01:04:14;6.30;;;4.67;;
8281;SDS011;25606;42.686;23.136;2022-07-23T01:06:41;5.53;;;4.63;;
8281;SDS011;25606;42.686;23.136;2022-07-23T01:09:09;6.17;;;4.33;;
8281;SDS011;25606;42.686;23.136;2022-07-23T01:11:37;5.93;;;4.40;;
8281;SDS011;25606;42.686;23.136;2022-07-23T01:14:10;5.90;;;4.37;;
8281;SDS011;25606;42.686;23.136;2022-07-23T01:16:37;5.57;;;4.53;;
8281;SDS011;25606;42.686;23.136;2022-07-23T01:19:05;5.90;;;4.80;;
8281;SDS011;25606;42.686;23.136;2022-07-23T01:21:34;11.97;;;5.07;;
8281;SDS011;25606;42.686;23.136;2022-07-23T01:24:04;8.57;;;4.40;;
8281;SDS011;25606;42.686;23.136;2022-07-23T01:26:31;6.57;;;4.93;;
8281;SDS011;25606;42.686;23.136;2022-07-23T01:28:59;7.73;;;4.57;;
8281;SDS011;25606;42.686;23.136;2022-07-23T01:31:26;8.67;;;4.60;;
8281;SDS011;25606;42.686;23.136;2022-07-23T01:33:53;7.00;;;4.40;;
8281;SDS011;25606;42.686;23.136;2022-07-23T01:36:21;6.30;;;4.63;;
8281;SDS011;25606;42.686;23.136;2022-07-23T01:38:48;4.90;;;4.10;;
8281;SDS011;25606;42.686;23.136;2022-07-23T01:41:17;4.90;;;4.50;;
8281;SDS011;25606;42.686;23.136;2022-07-23T01:43:44;8.30;;;4.40;;
8281;SDS011;25606;42.686;23.136;2022-07-23T01:46:11;7.37;;;4.80;;
8281;SDS011;25606;42.686;23.136;2022-07-23T01:48:39;6.17;;;4.30;;
8281;SDS011;25606;42.686;23.136;2022-07-23T01:51:06;6.17;;;4.50;;
8281;SDS011;25606;42.686;23.136;2022-07-23T01:53:33;5.50;;;4.70;;
8281;SDS011;25606;42.686;23.136;2022-07-23T01:56:01;4.93;;;4.40;;
8281;SDS011;25606;42.686;23.136;2022-07-23T01:58:30;4.50;;;4.10;;
8281;SDS011;25606;42.686;23.136;2022-07-23T02:00:58;7.73;;;4.50;;
8281;SDS011;25606;42.686;23.136;2022-07-23T02:03:25;6.37;;;4.47;;
8281;SDS011;25606;42.686;23.136;2022-07-23T02:05:52;5.70;;;4.57;;
8281;SDS011;25606;42.686;23.136;2022-07-23T02:08:20;4.70;;;4.10;;
8281;SDS011;25606;42.686;23.136;2022-07-23T02:10:47;5.80;;;4.60;;
8281;SDS011;25606;42.686;23.136;2022-07-23T02:13:16;4.70;;;4.20;;
8281;SDS011;25606;42.686;23.136;2022-07-23T02:15:45;4.73;;;3.87;;
8281;SDS011;25606;42.686;23.136;2022-07-23T02:18:12;5.57;;;4.30;;
8281;SDS011;25606;42.686;23.136;2022-07-23T02:20:39;6.47;;;4.40;;
8281;SDS011;25606;42.686;23.136;2022-07-23T02:23:07;7.93;;;4.70;;
8281;SDS011;25606;42.686;23.136;2022-07-23T02:25:34;4.87;;;4.17;;
8281;SDS011;25606;42.686;23.136;2022-07-23T02:28:02;8.77;;;4.17;;
8281;SDS011;25606;42.686;23.136;2022-07-23T02:30:29;5.00;;;4.50;;
8281;SDS011;25606;42.686;23.136;2022-07-23T02:32:58;6.87;;;5.00;;
8281;SDS011;25606;42.686;23.136;2022-07-23T02:35:25;6.80;;;5.47;;
8281;SDS011;25606;42.686;23.136;2022-07-23T02:37:52;7.73;;;4.93;;
8281;SDS011;25606;42.686;23.136;2022-07-23T02:40:19;9.60;;;5.03;;
8281;SDS011;25606;42.686;23.136;2022-07-23T02:42:47;8.43;;;4.70;;
8281;SDS011;25606;42.686;23.136;2022-07-23T02:45:14;5.63;;;4.30;;
8281;SDS011;25606;42.686;23.136;2022-07-23T02:47:41;6.00;;;4.90;;
8281;SDS011;25606;42.686;23.136;2022-07-23T02:50:12;5.80;;;4.40;;
8281;SDS011;25606;42.686;23.136;2022-07-23T02:52:39;7.27;;;4.60;;
8281;SDS011;25606;42.686;23.136;2022-07-23T02:55:07;4.87;;;4.37;;
8281;SDS011;25606;42.686;23.136;2022-07-23T02:57:34;6.83;;;4.30;;
8281;SDS011;25606;42.686;23.136;2022-07-23T03:00:02;7.57;;;5.30;;
8281;SDS011;25606;42.686;23.136;2022-07-23T03:02:30;4.93;;;4.43;;
8281;SDS011;25606;42.686;23.136;2022-07-23T03:04:57;5.30;;;4.67;;
8281;SDS011;25606;42.686;23.136;2022-07-23T03:07:25;6.03;;;4.50;;
8281;SDS011;25606;42.686;23.136;2022-07-23T03:09:53;5.00;;;4.07;;
8281;SDS011;25606;42.686;23.136;2022-07-23T03:12:20;5.67;;;4.30;;
8281;SDS011;25606;42.686;23.136;2022-07-23T03:14:47;4.93;;;4.47;;
8281;SDS011;25606;42.686;23.136;2022-07-23T03:17:14;6.80;;;4.50;;
8281;SDS011;25606;42.686;23.136;2022-07-23T03:19:42;7.20;;;4.30;;
8281;SDS011;25606;42.686;23.136;2022-07-23T03:22:09;4.57;;;4.17;;
8281;SDS011;25606;42.686;23.136;2022-07-23T03:24:38;7.30;;;4.63;;
8281;SDS011;25606;42.686;23.136;2022-07-23T03:27:20;5.90;;;4.17;;
8281;SDS011;25606;42.686;23.136;2022-07-23T03:29:48;4.67;;;4.17;;
8281;SDS011;25606;42.686;23.136;2022-07-23T03:32:15;6.43;;;4.20;;
8281;SDS011;25606;42.686;23.136;2022-07-23T03:34:42;6.37;;;4.40;;
8281;SDS011;25606;42.686;23.136;2022-07-23T03:37:10;8.90;;;4.10;;
8281;SDS011;25606;42.686;23.136;2022-07-23T03:39:39;7.10;;;4.70;;
8281;SDS011;25606;42.686;23.136;2022-07-23T03:42:06;5.47;;;4.27;;
8281;SDS011;25606;42.686;23.136;2022-07-23T03:44:34;5.93;;;4.27;;
8281;SDS011;25606;42.686;23.136;2022-07-23T03:47:03;4.63;;;4.10;;
8281;SDS011;25606;42.686;23.136;2022-07-23T03:49:30;6.13;;;4.30;;
8281;SDS011;25606;42.686;23.136;2022-07-23T03:51:58;5.83;;;4.53;;
8281;SDS011;25606;42.686;23.136;2022-07-23T03:54:25;6.70;;;4.60;;
8281;SDS011;25606;42.686;23.136;2022-07-23T03:56:54;4.97;;;4.47;;
8281;SDS011;25606;42.686;23.136;2022-07-23T03:59:21;6.93;;;4.50;;
8281;SDS011;25606;42.686;23.136;2022-07-23T04:01:48;5.57;;;4.43;;
8281;SDS011;25606;42.686;23.136;2022-07-23T04:04:15;6.33;;;4.43;;
8281;SDS011;25606;42.686;23.136;2022-07-23T04:06:43;5.00;;;4.40;;
8281;SDS011;25606;42.686;23.136;2022-07-23T04:09:10;5.50;;;4.00;;
8281;SDS011;25606;42.686;23.136;2022-07-23T04:11:37;4.93;;;4.43;;
8281;SDS011;25606;42.686;23.136;2022-07-23T04:14:06;5.10;;;4.60;;
8281;SDS011;25606;42.686;23.136;2022-07-23T04:16:33;4.60;;;4.10;;
8281;SDS011;25606;42.686;23.136;2022-07-23T04:19:00;5.33;;;4.30;;
8281;SDS011;25606;42.686;23.136;2022-07-23T04:21:29;4.77;;;4.30;;
8281;SDS011;25606;42.686;23.136;2022-07-23T04:23:56;5.43;;;4.50;;
8281;SDS011;25606;42.686;23.136;2022-07-23T04:26:24;7.77;;;4.30;;
8281;SDS011;25606;42.686;23.136;2022-07-23T04:28:51;5.17;;;4.63;;
8281;SDS011;25606;42.686;23.136;2022-07-23T04:31:20;5.20;;;4.70;;
8281;SDS011;25606;42.686;23.136;2022-07-23T04:33:47;7.53;;;4.77;;
8281;SDS011;25606;42.686;23.136;2022-07-23T04:36:14;4.83;;;4.33;;
8281;SDS011;25606;42.686;23.136;2022-07-23T04:38:41;5.07;;;4.57;;
8281;SDS011;25606;42.686;23.136;2022-07-23T04:41:09;6.23;;;4.57;;
8281;SDS011;25606;42.686;23.136;2022-07-23T04:43:36;6.77;;;4.73;;
8281;SDS011;25606;42.686;23.136;2022-07-23T04:46:03;5.97;;;4.77;;
8281;SDS011;25606;42.686;23.136;2022-07-23T04:48:32;5.37;;;4.40;;
8281;SDS011;25606;42.686;23.136;2022-07-23T04:50:59;5.00;;;4.60;;
8281;SDS011;25606;42.686;23.136;2022-07-23T04:53:26;6.00;;;4.77;;
8281;SDS011;25606;42.686;23.136;2022-07-23T04:55:54;4.87;;;4.37;;
8281;SDS011;25606;42.686;23.136;2022-07-23T04:58:21;4.97;;;4.40;;
8281;SDS011;25606;42.686;23.136;2022-07-23T05:00:48;5.10;;;4.30;;
8281;SDS011;25606;42.686;23.136;2022-07-23T05:03:15;8.23;;;4.13;;
8281;SDS011;25606;42.686;23.136;2022-07-23T05:05:44;5.70;;;4.93;;
8281;SDS011;25606;42.686;23.136;2022-07-23T05:08:11;6.50;;;4.80;;
8281;SDS011;25606;42.686;23.136;2022-07-23T05:10:38;7.00;;;4.80;;
8281;SDS011;25606;42.686;23.136;2022-07-23T05:13:06;6.43;;;4.37;;
8281;SDS011;25606;42.686;23.136;2022-07-23T05:15:33;6.20;;;5.43;;
8281;SDS011;25606;42.686;23.136;2022-07-23T05:18:00;6.43;;;4.03;;
8281;SDS011;25606;42.686;23.136;2022-07-23T05:20:28;5.33;;;4.67;;
8281;SDS011;25606;42.686;23.136;2022-07-23T05:22:56;5.67;;;4.23;;
8281;SDS011;25606;42.686;23.136;2022-07-23T05:25:23;7.47;;;4.77;;
8281;SDS011;25606;42.686;23.136;2022-07-23T05:27:51;5.93;;;4.80;;
8281;SDS011;25606;42.686;23.136;2022-07-23T05:30:18;5.40;;;4.87;;
8281;SDS011;25606;42.686;23.136;2022-07-23T05:32:45;7.00;;;4.80;;
8281;SDS011;25606;42.686;23.136;2022-07-23T05:35:13;5.20;;;4.70;;
8281;SDS011;25606;42.686;23.136;2022-07-23T05:37:40;5.70;;;4.43;;
8281;SDS011;25606;42.686;23.136;2022-07-23T05:40:09;7.60;;;4.50;;
8281;SDS011;25606;42.686;23.136;2022-07-23T05:42:37;7.07;;;5.27;;
8281;SDS011;25606;42.686;23.136;2022-07-23T05:45:05;6.30;;;4.90;;
8281;SDS011;25606;42.686;23.136;2022-07-23T05:47:38;7.87;;;4.40;;
8281;SDS011;25606;42.686;23.136;2022-07-23T05:50:06;7.00;;;4.80;;
8281;SDS011;25606;42.686;23.136;2022-07-23T05:52:33;6.07;;;4.57;;
8281;SDS011;25606;42.686;23.136;2022-07-23T05:55:00;5.90;;;4.70;;
8281;SDS011;25606;42.686;23.136;2022-07-23T05:57:29;5.37;;;4.70;;
8281;SDS011;25606;42.686;23.136;2022-07-23T05:59:56;5.67;;;4.93;;
8281;SDS011;25606;42.686;23.136;2022-07-23T06:02:24;5.78;;;4.30;;
8281;SDS011;25606;42.686;23.136;2022-07-23T06:04:51;5.75;;;4.68;;
8281;SDS011;25606;42.686;23.136;2022-07-23T06:07:18;9.88;;;4.82;;
8281;SDS011;25606;42.686;23.136;2022-07-23T06:09:45;7.03;;;4.32;;
8281;SDS011;25606;42.686;23.136;2022-07-23T06:12:14;6.30;;;4.37;;
8281;SDS011;25606;42.686;23.136;2022-07-23T06:14:43;5.30;;;4.55;;
8281;SDS011;25606;42.686;23.136;2022-07-23T06:17:10;5.65;;;4.68;;
8281;SDS011;25606;42.686;23.136;2022-07-23T06:19:37;5.25;;;4.75;;
8281;SDS011;25606;42.686;23.136;2022-07-23T06:22:05;8.48;;;5.07;;
8281;SDS011;25606;42.686;23.136;2022-07-23T06:24:32;6.75;;;4.80;;
8281;SDS011;25606;42.686;23.136;2022-07-23T06:26:59;5.35;;;4.82;;
8281;SDS011;25606;42.686;23.136;2022-07-23T06:29:26;7.53;;;5.22;;
8281;SDS011;25606;42.686;23.136;2022-07-23T06:31:55;6.68;;;5.18;;
8281;SDS011;25606;42.686;23.136;2022-07-23T06:34:22;5.85;;;5.03;;
8281;SDS011;25606;42.686;23.136;2022-07-23T06:36:49;8.57;;;4.90;;
8281;SDS011;25606;42.686;23.136;2022-07-23T06:39:17;7.72;;;5.10;;
8281;SDS011;25606;42.686;23.136;2022-07-23T06:41:44;5.65;;;5.00;;
8281;SDS011;25606;42.686;23.136;2022-07-23T06:44:11;12.02;;;5.40;;
8281;SDS011;25606;42.686;23.136;2022-07-23T06:46:39;8.75;;;5.50;;
8281;SDS011;25606;42.686;23.136;2022-07-23T06:49:07;7.10;;;5.40;;
8281;SDS011;25606;42.686;23.136;2022-07-23T06:51:34;9.75;;;5.57;;
8281;SDS011;25606;42.686;23.136;2022-07-23T06:54:02;15.55;;;5.28;;
8281;SDS011;25606;42.686;23.136;2022-07-23T06:56:29;8.68;;;6.18;;
8281;SDS011;25606;42.686;23.136;2022-07-23T06:58:56;12.02;;;6.03;;
8281;SDS011;25606;42.686;23.136;2022-07-23T07:01:24;8.32;;;6.05;;
8281;SDS011;25606;42.686;23.136;2022-07-23T07:03:51;9.43;;;5.80;;
8281;SDS011;25606;42.686;23.136;2022-07-23T07:06:20;10.65;;;6.72;;
8281;SDS011;25606;42.686;23.136;2022-07-23T07:08:47;14.82;;;7.60;;
8281;SDS011;25606;42.686;23.136;2022-07-23T07:11:14;13.35;;;8.18;;
8281;SDS011;25606;42.686;23.136;2022-07-23T07:13:42;12.60;;;9.45;;
8281;SDS011;25606;42.686;23.136;2022-07-23T07:16:09;24.35;;;20.10;;
8281;SDS011;25606;42.686;23.136;2022-07-23T07:18:36;29.88;;;26.08;;
8281;SDS011;25606;42.686;23.136;2022-07-23T07:21:03;36.33;;;25.05;;
8281;SDS011;25606;42.686;23.136;2022-07-23T07:23:32;26.38;;;23.70;;
8281;SDS011;25606;42.686;23.136;2022-07-23T07:25:59;43.92;;;36.80;;
8281;SDS011;25606;42.686;23.136;2022-07-23T07:28:27;40.05;;;35.75;;
8281;SDS011;25606;42.686;23.136;2022-07-23T07:30:54;58.75;;;51.45;;
8281;SDS011;25606;42.686;23.136;2022-07-23T07:33:21;61.53;;;55.63;;
8281;SDS011;25606;42.686;23.136;2022-07-23T07:35:49;83.47;;;75.80;;
8281;SDS011;25606;42.686;23.136;2022-07-23T07:38:16;119.07;;;75.57;;
8281;SDS011;25606;42.686;23.136;2022-07-23T07:40:45;72.50;;;65.72;;
8281;SDS011;25606;42.686;23.136;2022-07-23T07:43:12;89.60;;;80.80;;
8281;SDS011;25606;42.686;23.136;2022-07-23T07:45:39;104.00;;;94.20;;
8281;SDS011;25606;42.686;23.136;2022-07-23T07:48:06;123.88;;;111.85;;
8281;SDS011;25606;42.686;23.136;2022-07-23T07:50:34;118.88;;;107.30;;
8281;SDS011;25606;42.686;23.136;2022-07-23T07:53:01;82.00;;;74.65;;
8281;SDS011;25606;42.686;23.136;2022-07-23T07:55:28;61.95;;;56.15;;
8281;SDS011;25606;42.686;23.136;2022-07-23T07:57:57;79.85;;;71.35;;
8281;SDS011;25606;42.686;23.136;2022-07-23T08:00:24;103.20;;;93.45;;
8281;SDS011;25606;42.686;23.136;2022-07-23T08:02:52;108.25;;;97.88;;
8281;SDS011;25606;42.686;23.136;2022-07-23T08:05:20;127.25;;;115.38;;
8281;SDS011;25606;42.686;23.136;2022-07-23T08:07:47;130.38;;;117.78;;
8281;SDS011;25606;42.686;23.136;2022-07-23T08:10:14;142.23;;;129.40;;
8281;SDS011;25606;42.686;23.136;2022-07-23T08:12:42;127.75;;;115.80;;
8281;SDS011;25606;42.686;23.136;2022-07-23T08:15:12;126.93;;;115.80;;
8281;SDS011;25606;42.686;23.136;2022-07-23T08:17:40;143.73;;;131.00;;
8281;SDS011;25606;42.686;23.136;2022-07-23T08:20:07;143.77;;;131.05;;
8281;SDS011;25606;42.686;23.136;2022-07-23T08:22:42;128.43;;;116.78;;
8281;SDS011;25606;42.686;23.136;2022-07-23T08:25:10;151.88;;;137.95;;
8281;SDS011;25606;42.686;23.136;2022-07-23T08:27:37;160.70;;;146.52;;
8281;SDS011;25606;42.686;23.136;2022-07-23T08:30:05;172.00;;;156.55;;
8281;SDS011;25606;42.686;23.136;2022-07-23T08:32:35;189.20;;;172.25;;
8281;SDS011;25606;42.686;23.136;2022-07-23T08:35:14;166.10;;;151.30;;
8281;SDS011;25606;42.686;23.136;2022-07-23T08:37:41;177.80;;;161.90;;
8281;SDS011;25606;42.686;23.136;2022-07-23T08:40:10;170.15;;;154.82;;
8281;SDS011;25606;42.686;23.136;2022-07-23T08:42:37;169.07;;;153.57;;
8281;SDS011;25606;42.686;23.136;2022-07-23T08:45:05;154.20;;;140.75;;
8281;SDS011;25606;42.686;23.136;2022-07-23T08:47:35;152.80;;;138.77;;
8281;SDS011;25606;42.686;23.136;2022-07-23T08:50:03;144.90;;;131.80;;
8281;SDS011;25606;42.686;23.136;2022-07-23T08:52:30;122.72;;;110.72;;
8281;SDS011;25606;42.686;23.136;2022-07-23T08:54:58;124.18;;;112.63;;
8281;SDS011;25606;42.686;23.136;2022-07-23T08:57:25;46.90;;;41.30;;
8281;SDS011;25606;42.686;23.136;2022-07-23T08:59:52;69.18;;;62.30;;
8281;SDS011;25606;42.686;23.136;2022-07-23T09:02:20;93.50;;;84.38;;
8281;SDS011;25606;42.686;23.136;2022-07-23T09:04:48;77.78;;;70.53;;
8281;SDS011;25606;42.686;23.136;2022-07-23T09:07:16;70.93;;;64.50;;
8281;SDS011;25606;42.686;23.136;2022-07-23T09:09:43;70.50;;;64.25;;
8281;SDS011;25606;42.686;23.136;2022-07-23T09:12:10;95.97;;;86.78;;
8281;SDS011;25606;42.686;23.136;2022-07-23T09:14:38;99.30;;;89.85;;
8281;SDS011;25606;42.686;23.136;2022-07-23T09:17:10;118.25;;;108.30;;
8281;SDS011;25606;42.686;23.136;2022-07-23T09:19:37;125.72;;;114.63;;
8281;SDS011;25606;42.686;23.136;2022-07-23T09:22:19;48.70;;;43.03;;
8281;SDS011;25606;42.686;23.136;2022-07-23T09:25:04;77.30;;;70.22;;
8281;SDS011;25606;42.686;23.136;2022-07-23T09:27:48;79.18;;;72.25;;
8281;SDS011;25606;42.686;23.136;2022-07-23T09:30:17;34.63;;;28.00;;
8281;SDS011;25606;42.686;23.136;2022-07-23T09:32:45;71.50;;;65.40;;
8281;SDS011;25606;42.686;23.136;2022-07-23T09:35:42;57.45;;;51.13;;
8281;SDS011;25606;42.686;23.136;2022-07-23T09:38:12;68.50;;;62.08;;
8281;SDS011;25606;42.686;23.136;2022-07-23T09:40:39;43.78;;;37.15;;
8281;SDS011;25606;42.686;23.136;2022-07-23T09:43:06;37.58;;;33.08;;
8281;SDS011;25606;42.686;23.136;2022-07-23T09:45:33;56.92;;;51.47;;
8281;SDS011;25606;42.686;23.136;2022-07-23T09:48:11;53.00;;;48.38;;
8281;SDS011;25606;42.686;23.136;2022-07-23T09:50:38;76.80;;;69.32;;
8281;SDS011;25606;42.686;23.136;2022-07-23T09:53:06;62.15;;;55.05;;
8281;SDS011;25606;42.686;23.136;2022-07-23T09:55:35;64.03;;;56.97;;
8281;SDS011;25606;42.686;23.136;2022-07-23T09:58:04;52.00;;;46.67;;
8281;SDS011;25606;42.686;23.136;2022-07-23T10:00:33;75.38;;;68.75;;
8281;SDS011;25606;42.686;23.136;2022-07-23T10:03:00;120.22;;;108.82;;
8281;SDS011;25606;42.686;23.136;2022-07-23T10:05:29;77.53;;;70.45;;
8281;SDS011;25606;42.686;23.136;2022-07-23T10:07:57;116.65;;;105.97;;
8281;SDS011;25606;42.686;23.136;2022-07-23T10:10:24;95.40;;;86.93;;
8281;SDS011;25606;42.686;23.136;2022-07-23T10:12:55;120.50;;;109.53;;
8281;SDS011;25606;42.686;23.136;2022-07-23T10:15:39;49.60;;;44.70;;
8281;SDS011;25606;42.686;23.136;2022-07-23T10:18:08;57.45;;;48.63;;
8281;SDS011;25606;42.686;23.136;2022-07-23T10:20:37;108.60;;;99.15;;
8281;SDS011;25606;42.686;23.136;2022-07-23T10:23:05;111.47;;;101.25;;
8281;SDS011;25606;42.686;23.136;2022-07-23T10:25:36;153.20;;;139.07;;
8281;SDS011;25606;42.686;23.136;2022-07-23T10:28:12;174.52;;;159.70;;
8281;SDS011;25606;42.686;23.136;2022-07-23T10:30:46;170.05;;;155.25;;
8281;SDS011;25606;42.686;23.136;2022-07-23T10:33:17;176.60;;;161.60;;
8281;SDS011;25606;42.686;23.136;2022-07-23T10:35:48;164.82;;;150.45;;
8281;SDS011;25606;42.686;23.136;2022-07-23T10:38:19;180.90;;;166.27;;
8281;SDS011;25606;42.686;23.136;2022-07-23T10:40:54;142.80;;;130.63;;
8281;SDS011;25606;42.686;23.136;2022-07-23T10:43:23;102.93;;;94.35;;
8281;SDS011;25606;42.686;23.136;2022-07-23T10:45:51;92.47;;;84.53;;
8281;SDS011;25606;42.686;23.136;2022-07-23T10:48:19;57.30;;;51.22;;
8281;SDS011;25606;42.686;23.136;2022-07-23T10:53:29;84.18;;;76.07;;
8281;SDS011;25606;42.686;23.136;2022-07-23T10:56:16;92.13;;;84.03;;
8281;SDS011;25606;42.686;23.136;2022-07-23T10:58:48;79.60;;;72.47;;
8281;SDS011;25606;42.686;23.136;2022-07-23T11:01:31;58.50;;;51.65;;
8281;SDS011;25606;42.686;23.136;2022-07-23T11:03:59;45.72;;;39.83;;
8281;SDS011;25606;42.686;23.136;2022-07-23T11:14:59;27.45;;;20.92;;
8281;SDS011;25606;42.686;23.136;2022-07-23T11:17:27;43.88;;;36.95;;
8281;SDS011;25606;42.686;23.136;2022-07-23T11:20:13;56.80;;;51.35;;
8281;SDS011;25606;42.686;23.136;2022-07-23T11:22:46;73.18;;;65.57;;
8281;SDS011;25606;42.686;23.136;2022-07-23T11:25:27;67.88;;;61.70;;
8281;SDS011;25606;42.686;23.136;2022-07-23T11:27:56;101.40;;;79.97;;
8281;SDS011;25606;42.686;23.136;2022-07-23T11:30:39;102.65;;;93.40;;
8281;SDS011;25606;42.686;23.136;2022-07-23T11:33:16;103.38;;;93.80;;
8281;SDS011;25606;42.686;23.136;2022-07-23T11:35:44;119.47;;;108.85;;
8281;SDS011;25606;42.686;23.136;2022-07-23T11:38:12;118.03;;;107.63;;
8281;SDS011;25606;42.686;23.136;2022-07-23T11:40:40;139.90;;;127.90;;
8281;SDS011;25606;42.686;23.136;2022-07-23T11:43:08;146.85;;;133.52;;
8281;SDS011;25606;42.686;23.136;2022-07-23T11:45:37;127.10;;;116.07;;
8281;SDS011;25606;42.686;23.136;2022-07-23T11:48:06;154.90;;;141.60;;
8281;SDS011;25606;42.686;23.136;2022-07-23T11:50:34;161.80;;;148.63;;
8281;SDS011;25606;42.686;23.136;2022-07-23T11:53:02;161.88;;;147.35;;
8281;SDS011;25606;42.686;23.136;2022-07-23T11:55:29;163.48;;;149.98;;
8281;SDS011;25606;42.686;23.136;2022-07-23T11:57:56;164.45;;;150.30;;
8281;SDS011;25606;42.686;23.136;2022-07-23T12:00:25;146.30;;;133.70;;
8281;SDS011;25606;42.686;23.136;2022-07-23T12:02:53;124.30;;;113.00;;
8281;SDS011;25606;42.686;23.136;2022-07-23T12:05:22;92.30;;;84.20;;
8281;SDS011;25606;42.686;23.136;2022-07-23T12:07:50;124.88;;;113.53;;
8281;SDS011;25606;42.686;23.136;2022-07-23T12:10:18;171.85;;;157.38;;
8281;SDS011;25606;42.686;23.136;2022-07-23T12:12:46;169.30;;;154.05;;
8281;SDS011;25606;42.686;23.136;2022-07-23T12:15:14;131.63;;;120.25;;
8281;SDS011;25606;42.686;23.136;2022-07-23T12:17:43;121.28;;;111.47;;
8281;SDS011;25606;42.686;23.136;2022-07-23T12:20:13;138.07;;;126.10;;
8281;SDS011;25606;42.686;23.136;2022-07-23T12:22:42;147.52;;;135.07;;
8281;SDS011;25606;42.686;23.136;2022-07-23T12:25:10;141.98;;;130.13;;
8281;SDS011;25606;42.686;23.136;2022-07-23T12:27:38;161.75;;;148.15;;
8281;SDS011;25606;42.686;23.136;2022-07-23T12:30:18;131.63;;;120.25;;
8281;SDS011;25606;42.686;23.136;2022-07-23T12:32:46;93.35;;;85.30;;
8281;SDS011;25606;42.686;23.136;2022-07-23T12:35:14;128.82;;;118.13;;
8281;SDS011;25606;42.686;23.136;2022-07-23T12:37:44;141.98;;;130.00;;
8281;SDS011;25606;42.686;23.136;2022-07-23T12:40:25;137.23;;;126.00;;
8281;SDS011;25606;42.686;23.136;2022-07-23T12:42:53;113.88;;;104.35;;
8281;SDS011;25606;42.686;23.136;2022-07-23T12:45:21;137.52;;;126.25;;
8281;SDS011;25606;42.686;23.136;2022-07-23T12:47:55;147.23;;;135.18;;
8281;SDS011;25606;42.686;23.136;2022-07-23T12:53:14;148.48;;;136.15;;
8281;SDS011;25606;42.686;23.136;2022-07-23T12:55:42;142.95;;;131.10;;
8281;SDS011;25606;42.686;23.136;2022-07-23T12:58:11;155.70;;;142.48;;
8281;SDS011;25606;42.686;23.136;2022-07-23T13:00:51;198.13;;;181.43;;
8281;SDS011;25606;42.686;23.136;2022-07-23T13:03:25;171.60;;;157.45;;
8281;SDS011;25606;42.686;23.136;2022-07-23T13:05:53;185.50;;;169.90;;
8281;SDS011;25606;42.686;23.136;2022-07-23T13:08:22;212.38;;;195.13;;
8281;SDS011;25606;42.686;23.136;2022-07-23T13:10:50;220.18;;;202.40;;
8281;SDS011;25606;42.686;23.136;2022-07-23T13:13:19;193.07;;;177.32;;
8281;SDS011;25606;42.686;23.136;2022-07-23T13:15:47;188.48;;;173.18;;
8281;SDS011;25606;42.686;23.136;2022-07-23T13:18:14;186.88;;;172.00;;
8281;SDS011;25606;42.686;23.136;2022-07-23T13:20:42;149.77;;;138.00;;
8281;SDS011;25606;42.686;23.136;2022-07-23T13:23:09;132.70;;;122.35;;
8281;SDS011;25606;42.686;23.136;2022-07-23T13:25:38;141.05;;;129.05;;
8281;SDS011;25606;42.686;23.136;2022-07-23T13:28:06;168.85;;;154.50;;
8281;SDS011;25606;42.686;23.136;2022-07-23T13:30:33;144.07;;;132.57;;
8281;SDS011;25606;42.686;23.136;2022-07-23T13:33:01;189.45;;;172.18;;
8281;SDS011;25606;42.686;23.136;2022-07-23T13:35:28;192.25;;;175.98;;
8281;SDS011;25606;42.686;23.136;2022-07-23T13:37:56;161.75;;;148.32;;
8281;SDS011;25606;42.686;23.136;2022-07-23T13:40:24;136.23;;;124.80;;
8281;SDS011;25606;42.686;23.136;2022-07-23T13:42:53;140.55;;;128.98;;
8281;SDS011;25606;42.686;23.136;2022-07-23T13:45:20;169.77;;;155.45;;
8281;SDS011;25606;42.686;23.136;2022-07-23T13:47:48;127.43;;;116.72;;
8281;SDS011;25606;42.686;23.136;2022-07-23T13:50:15;86.10;;;78.53;;
8281;SDS011;25606;42.686;23.136;2022-07-23T13:52:43;86.50;;;77.60;;
8281;SDS011;25606;42.686;23.136;2022-07-23T13:55:10;78.32;;;70.95;;
8281;SDS011;25606;42.686;23.136;2022-07-23T13:57:37;36.00;;;29.45;;
8281;SDS011;25606;42.686;23.136;2022-07-23T14:00:09;36.05;;;27.67;;
8281;SDS011;25606;42.686;23.136;2022-07-23T14:02:37;29.83;;;25.08;;
8281;SDS011;25606;42.686;23.136;2022-07-23T14:05:08;51.75;;;46.42;;
8281;SDS011;25606;42.686;23.136;2022-07-23T14:07:38;26.45;;;12.35;;
8281;SDS011;25606;42.686;23.136;2022-07-23T14:10:08;21.20;;;7.63;;
8281;SDS011;25606;42.686;23.136;2022-07-23T14:12:36;17.52;;;6.68;;
8281;SDS011;25606;42.686;23.136;2022-07-23T14:15:08;12.70;;;6.55;;
8281;SDS011;25606;42.686;23.136;2022-07-23T14:17:37;10.70;;;5.88;;
8281;SDS011;25606;42.686;23.136;2022-07-23T14:20:05;14.20;;;6.18;;
8281;SDS011;25606;42.686;23.136;2022-07-23T14:22:36;15.45;;;7.10;;
8281;SDS011;25606;42.686;23.136;2022-07-23T14:25:05;15.55;;;7.28;;
8281;SDS011;25606;42.686;23.136;2022-07-23T14:27:32;18.00;;;8.00;;
8281;SDS011;25606;42.686;23.136;2022-07-23T14:30:00;20.83;;;10.60;;
8281;SDS011;25606;42.686;23.136;2022-07-23T14:32:29;26.45;;;16.65;;
8281;SDS011;25606;42.686;23.136;2022-07-23T14:34:57;28.17;;;22.58;;
8281;SDS011;25606;42.686;23.136;2022-07-23T14:37:25;38.20;;;29.00;;
8281;SDS011;25606;42.686;23.136;2022-07-23T14:39:53;24.88;;;20.38;;
8281;SDS011;25606;42.686;23.136;2022-07-23T14:42:21;25.55;;;18.55;;
8281;SDS011;25606;42.686;23.136;2022-07-23T14:44:48;43.72;;;31.73;;
8281;SDS011;25606;42.686;23.136;2022-07-23T14:47:16;27.95;;;13.23;;
8281;SDS011;25606;42.686;23.136;2022-07-23T14:49:44;21.38;;;8.13;;